Time;durP1;ratioP1;P1;durP2;ratioP2;P2;SDS_P1;SDS_P2;PMS_P1;PMS_P2;Temp;Humidity;BMP_temperature;BMP_pressure;BME280_temperature;BME280_humidity;BME280_pressure;Samples;Min_cycle;Max_cycle;Signal;HPM_P1;HPM_P2
2024/01/08 00:01:35;;;;;;;7.25;4.93;;;11.40;98.80;;;;;;4981787;28;20441;-87
2024/01/08 00:04:01;;;;;;;7.68;5.10;;;11.40;98.80;;;;;;4986985;28;20085;-88
2024/01/08 00:06:27;;;;;;;9.65;6.03;;;11.40;98.80;;;;;;4987127;28;20034;-87
2024/01/08 00:08:52;;;;;;;8.57;5.57;;;11.40;98.90;;;;;;4984416;28;20031;-87
2024/01/08 00:11:18;;;;;;;11.48;5.72;;;11.40;99.00;;;;;;4985939;28;20031;-87
2024/01/08 00:13:44;;;;;;;5.35;4.40;;;11.50;99.10;;;;;;4977558;28;20133;-87
2024/01/08 00:16:10;;;;;;;7.57;5.53;;;11.40;98.80;;;;;;4986792;28;20031;-87
2024/01/08 00:18:35;;;;;;;7.75;4.57;;;11.40;98.80;;;;;;4986151;28;20034;-87
2024/01/08 00:21:02;;;;;;;5.88;4.50;;;11.40;98.80;;;;;;4978518;28;20508;-87
2024/01/08 00:23:30;;;;;;;6.97;5.00;;;11.40;98.90;;;;;;4978403;28;20026;-87
2024/01/08 00:25:56;;;;;;;8.82;4.60;;;11.40;98.90;;;;;;4979583;28;20049;-87
2024/01/08 00:28:22;;;;;;;8.30;5.00;;;11.40;99.00;;;;;;4982646;28;20038;-87
2024/01/08 00:30:48;;;;;;;7.75;4.82;;;11.50;99.10;;;;;;4980267;28;20421;-87
2024/01/08 00:33:14;;;;;;;6.25;4.35;;;11.50;99.00;;;;;;4970264;28;20045;-87
2024/01/08 00:35:39;;;;;;;7.75;4.30;;;11.50;98.90;;;;;;4988451;28;20035;-87
2024/01/08 00:38:05;;;;;;;6.80;4.53;;;11.50;98.90;;;;;;4986527;28;20089;-86
2024/01/08 00:40:31;;;;;;;5.20;3.70;;;11.40;98.70;;;;;;4977435;28;20030;-86
2024/01/08 00:42:57;;;;;;;6.07;4.03;;;11.40;98.70;;;;;;4990914;28;20041;-86
2024/01/08 00:45:23;;;;;;;5.15;3.60;;;11.50;98.70;;;;;;4984821;28;20030;-86
2024/01/08 00:47:49;;;;;;;5.03;3.58;;;11.50;98.60;;;;;;4977992;28;20433;-87
2024/01/08 00:50:16;;;;;;;6.65;3.67;;;11.50;98.60;;;;;;4977122;28;20045;-86
2024/01/08 00:52:41;;;;;;;5.32;3.13;;;11.50;98.60;;;;;;4985494;28;20035;-86
2024/01/08 00:55:08;;;;;;;5.82;3.95;;;11.50;98.70;;;;;;4975607;28;20097;-86
2024/01/08 00:57:34;;;;;;;4.18;2.92;;;11.50;98.30;;;;;;4985073;28;20476;-86
2024/01/08 01:00:01;;;;;;;4.00;2.83;;;11.50;98.20;;;;;;4977271;28;20023;-87
2024/01/08 01:02:27;;;;;;;5.32;2.88;;;11.50;98.30;;;;;;4986079;28;20101;-87
2024/01/08 01:04:52;;;;;;;6.57;3.22;;;11.50;98.20;;;;;;4977790;28;20150;-87
2024/01/08 01:07:18;;;;;;;4.90;3.10;;;11.50;98.20;;;;;;4982746;28;20428;-88
2024/01/08 01:09:43;;;;;;;4.93;3.03;;;11.50;98.10;;;;;;4984576;28;20433;-89
2024/01/08 01:12:10;;;;;;;4.10;2.63;;;11.50;98.30;;;;;;4958313;29;20117;-89
2024/01/08 01:14:36;;;;;;;3.80;2.47;;;11.50;98.10;;;;;;4974375;28;20026;-88
2024/01/08 01:17:01;;;;;;;6.00;3.00;;;11.50;98.10;;;;;;4984547;28;20031;-88
2024/01/08 01:19:27;;;;;;;4.15;2.20;;;11.50;98.10;;;;;;4987922;28;20030;-89
2024/01/08 01:21:53;;;;;;;4.65;2.58;;;11.50;98.10;;;;;;4980800;28;20379;-87
2024/01/08 01:24:19;;;;;;;4.18;2.42;;;11.50;98.20;;;;;;4993275;28;20018;-88
2024/01/08 01:26:44;;;;;;;4.75;2.35;;;11.50;98.30;;;;;;4979318;28;20035;-87
2024/01/08 01:29:10;;;;;;;3.88;2.47;;;11.50;98.40;;;;;;4982181;28;20061;-86
2024/01/08 01:31:36;;;;;;;3.67;2.30;;;11.50;98.40;;;;;;4991936;28;20023;-86
2024/01/08 01:34:02;;;;;;;3.90;2.08;;;11.50;98.40;;;;;;4985106;28;20504;-89
2024/01/08 01:36:29;;;;;;;3.28;2.08;;;11.50;98.40;;;;;;4992409;28;20042;-88
2024/01/08 01:38:55;;;;;;;3.08;1.90;;;11.50;98.30;;;;;;4991327;28;20034;-89
2024/01/08 01:41:21;;;;;;;3.47;1.83;;;11.50;98.20;;;;;;4985882;28;20476;-89
2024/01/08 01:43:46;;;;;;;4.50;1.90;;;11.50;98.10;;;;;;4986779;28;20022;-87
2024/01/08 01:46:39;;;;;;;1.90;1.30;;;11.50;98.00;;;;;;4990471;28;20525;-87
2024/01/08 01:49:07;;;;;;;3.22;1.65;;;11.50;98.00;;;;;;4968300;28;20038;-88
2024/01/08 01:51:33;;;;;;;2.92;1.98;;;11.50;98.00;;;;;;4989044;28;20037;-88
2024/01/08 01:54:00;;;;;;;2.97;1.77;;;11.50;98.00;;;;;;4979174;28;20030;-87
2024/01/08 01:56:26;;;;;;;5.15;1.80;;;11.50;98.00;;;;;;4978633;28;20104;-88
2024/01/08 01:58:52;;;;;;;1.60;1.13;;;11.50;98.00;;;;;;4991222;28;20539;-88
2024/01/08 02:01:19;;;;;;;3.00;1.45;;;11.50;98.00;;;;;;4986420;28;20042;-87
2024/01/08 02:03:45;;;;;;;2.47;1.55;;;11.50;97.80;;;;;;4981069;28;20042;-88
2024/01/08 02:06:12;;;;;;;1.90;1.10;;;11.50;97.90;;;;;;4974408;28;20106;-87
2024/01/08 02:08:39;;;;;;;2.35;1.20;;;11.50;97.80;;;;;;4981867;28;20062;-88
2024/01/08 02:11:04;;;;;;;2.42;1.40;;;11.50;97.70;;;;;;4992462;28;20022;-88
2024/01/08 02:13:30;;;;;;;3.05;1.60;;;11.50;97.50;;;;;;4979135;28;20034;-88
2024/01/08 02:15:56;;;;;;;1.13;1.00;;;11.50;97.40;;;;;;4981332;28;20030;-89
2024/01/08 02:18:22;;;;;;;1.73;1.00;;;11.50;97.30;;;;;;4978942;28;20096;-88
2024/01/08 02:20:47;;;;;;;1.48;1.00;;;11.50;97.20;;;;;;4971325;28;20034;-87
2024/01/08 02:23:13;;;;;;;1.30;0.90;;;11.50;97.10;;;;;;4975084;28;20022;-88
2024/01/08 02:25:39;;;;;;;1.35;0.80;;;11.50;97.00;;;;;;4982372;28;20046;-88
2024/01/08 02:28:05;;;;;;;2.60;0.88;;;11.50;96.90;;;;;;4983060;28;20059;-87
2024/01/08 02:30:31;;;;;;;3.25;0.90;;;11.50;96.80;;;;;;4980482;28;20481;-88
2024/01/08 02:32:57;;;;;;;3.20;0.90;;;11.50;96.80;;;;;;4989857;28;20034;-87
2024/01/08 02:35:22;;;;;;;2.33;1.02;;;11.50;96.80;;;;;;4962710;28;20105;-88
2024/01/08 02:37:48;;;;;;;1.55;0.80;;;11.50;96.80;;;;;;4985610;28;20457;-87
2024/01/08 02:40:15;;;;;;;1.77;1.10;;;11.50;96.90;;;;;;4973631;28;20352;-88
2024/01/08 02:42:41;;;;;;;2.50;0.70;;;11.50;96.80;;;;;;4981883;28;20031;-87
2024/01/08 02:45:08;;;;;;;1.75;1.08;;;11.50;96.80;;;;;;4960142;28;20386;-87
2024/01/08 02:47:40;;;;;;;2.35;0.80;;;11.50;96.40;;;;;;4977619;28;20081;-87
2024/01/08 02:50:07;;;;;;;2.05;1.05;;;11.50;96.40;;;;;;4987997;28;20106;-87
2024/01/08 02:52:33;;;;;;;3.22;0.82;;;11.50;96.40;;;;;;4985584;28;20030;-87
2024/01/08 02:54:59;;;;;;;2.92;1.35;;;11.50;96.30;;;;;;4975443;28;20030;-87
2024/01/08 02:57:28;;;;;;;1.73;0.70;;;11.50;96.30;;;;;;4975391;28;20031;-88
2024/01/08 02:59:57;;;;;;;0.90;0.80;;;11.50;96.20;;;;;;4977897;28;20027;-88
2024/01/08 03:02:24;;;;;;;1.35;0.90;;;11.50;96.20;;;;;;4983733;28;20263;-88
2024/01/08 03:04:51;;;;;;;1.42;0.88;;;11.50;96.30;;;;;;4968721;28;20406;-86
2024/01/08 03:07:19;;;;;;;1.48;0.77;;;11.50;96.20;;;;;;4978786;28;20038;-87
2024/01/08 03:09:46;;;;;;;2.35;0.60;;;11.40;96.10;;;;;;4985982;28;20023;-87
2024/01/08 03:12:13;;;;;;;1.95;0.70;;;11.40;96.10;;;;;;4964246;28;20474;-85
2024/01/08 03:14:38;;;;;;;1.67;0.80;;;11.40;95.90;;;;;;4986480;28;20081;-87
2024/01/08 03:17:04;;;;;;;1.00;0.60;;;11.40;95.90;;;;;;4977569;28;20098;-87
2024/01/08 03:19:30;;;;;;;0.70;0.52;;;11.40;95.90;;;;;;4987130;28;20480;-87
2024/01/08 03:21:56;;;;;;;1.15;0.60;;;11.40;95.80;;;;;;4974843;28;20031;-87
2024/01/08 03:24:21;;;;;;;1.33;0.80;;;11.40;95.80;;;;;;4984998;28;20035;-87
2024/01/08 03:26:47;;;;;;;1.25;0.60;;;11.40;95.90;;;;;;4970369;28;20023;-87
2024/01/08 03:29:13;;;;;;;1.17;0.80;;;11.40;95.70;;;;;;4979556;28;20026;-87
2024/01/08 03:31:42;;;;;;;1.17;0.63;;;11.40;95.70;;;;;;4978841;28;20024;-87
2024/01/08 03:34:08;;;;;;;4.95;0.80;;;11.40;95.60;;;;;;4965361;28;20097;-87
2024/01/08 03:36:34;;;;;;;0.88;0.65;;;11.50;95.50;;;;;;4983318;28;20031;-86
2024/01/08 03:39:00;;;;;;;1.75;0.80;;;11.40;95.40;;;;;;4974931;28;20426;-87
2024/01/08 03:41:25;;;;;;;1.83;0.80;;;11.40;95.40;;;;;;4972516;28;20127;-87
2024/01/08 03:43:51;;;;;;;1.25;0.73;;;11.40;95.40;;;;;;4975194;28;20461;-87
2024/01/08 03:46:17;;;;;;;3.28;0.93;;;11.40;95.60;;;;;;4981187;28;20114;-87
2024/01/08 03:48:43;;;;;;;1.55;0.73;;;11.40;95.60;;;;;;4981606;28;20126;-87
2024/01/08 03:51:08;;;;;;;1.20;0.85;;;11.40;95.20;;;;;;4976701;28;20472;-86
2024/01/08 03:53:34;;;;;;;3.78;1.00;;;11.30;95.40;;;;;;4980833;28;20030;-87
2024/01/08 03:56:00;;;;;;;1.40;0.82;;;11.30;95.50;;;;;;4984281;28;20070;-87
2024/01/08 03:58:26;;;;;;;0.93;0.70;;;11.30;95.60;;;;;;4981531;28;20043;-87
2024/01/08 04:00:53;;;;;;;1.52;0.77;;;11.30;95.60;;;;;;4977691;28;20031;-87
2024/01/08 04:03:19;;;;;;;1.40;0.80;;;11.30;95.60;;;;;;4986277;28;20033;-86
2024/01/08 04:05:45;;;;;;;1.15;0.90;;;11.30;95.60;;;;;;4985258;28;20030;-87
2024/01/08 04:08:11;;;;;;;1.75;1.00;;;11.30;95.70;;;;;;4981521;28;20038;-86
2024/01/08 04:10:37;;;;;;;2.92;0.88;;;11.30;95.70;;;;;;4978176;28;20062;-87
2024/01/08 04:13:03;;;;;;;1.00;0.70;;;11.30;95.70;;;;;;4980912;28;20058;-88
2024/01/08 04:15:29;;;;;;;1.50;0.90;;;11.20;95.50;;;;;;4974384;28;20481;-87
2024/01/08 04:17:55;;;;;;;1.40;0.80;;;11.30;95.60;;;;;;4983199;28;20031;-88
2024/01/08 04:20:21;;;;;;;2.08;1.00;;;11.20;95.70;;;;;;4980446;28;20105;-87
2024/01/08 04:22:49;;;;;;;1.65;1.15;;;11.20;95.60;;;;;;4980958;28;20033;-87
2024/01/08 04:25:15;;;;;;;1.42;0.60;;;11.20;95.50;;;;;;4988912;28;20074;-87
2024/01/08 04:27:42;;;;;;;1.48;1.20;;;11.20;95.50;;;;;;4968560;28;20085;-87
2024/01/08 04:30:08;;;;;;;1.60;0.77;;;11.20;95.60;;;;;;4981619;28;20030;-87
2024/01/08 04:32:34;;;;;;;1.13;0.77;;;11.20;95.50;;;;;;4975358;28;20061;-87
2024/01/08 04:35:19;;;;;;;2.08;0.77;;;11.20;95.50;;;;;;4964858;28;20035;-87
2024/01/08 04:37:45;;;;;;;2.30;0.73;;;11.20;95.40;;;;;;4972903;28;20031;-87
2024/01/08 04:40:11;;;;;;;1.80;1.23;;;11.20;95.30;;;;;;4973813;28;20046;-87
2024/01/08 04:42:36;;;;;;;0.95;0.75;;;11.10;95.10;;;;;;4978864;28;20054;-87
2024/01/08 04:45:03;;;;;;;1.65;1.08;;;11.10;95.10;;;;;;4977201;28;20069;-87
2024/01/08 04:47:29;;;;;;;2.03;1.08;;;11.10;95.30;;;;;;4983654;28;20014;-87
2024/01/08 04:49:54;;;;;;;4.50;1.20;;;11.10;95.30;;;;;;4984156;28;20042;-88
2024/01/08 04:52:20;;;;;;;1.65;0.75;;;11.10;95.20;;;;;;4979050;28;20026;-87
2024/01/08 04:54:46;;;;;;;1.13;0.73;;;11.10;95.00;;;;;;4979795;28;20035;-87
2024/01/08 04:57:12;;;;;;;0.90;0.80;;;11.10;95.00;;;;;;4986084;28;20022;-87
2024/01/08 04:59:41;;;;;;;1.27;1.00;;;11.10;95.00;;;;;;4986667;28;20085;-86
2024/01/08 05:02:08;;;;;;;1.52;0.95;;;11.10;95.00;;;;;;4978826;28;20034;-89
2024/01/08 05:04:34;;;;;;;1.08;0.80;;;11.10;94.90;;;;;;4958787;28;20027;-89
2024/01/08 05:06:59;;;;;;;1.33;0.80;;;11.10;95.00;;;;;;4988842;28;20434;-88
2024/01/08 05:09:25;;;;;;;1.48;1.00;;;11.10;95.20;;;;;;4982673;28;20502;-87
2024/01/08 05:11:51;;;;;;;0.98;0.88;;;11.10;95.20;;;;;;4984582;28;20162;-89
2024/01/08 05:14:16;;;;;;;1.20;1.05;;;11.10;95.10;;;;;;4992593;28;20030;-88
2024/01/08 05:16:42;;;;;;;7.38;1.25;;;11.10;95.20;;;;;;4987654;28;20480;-89
2024/01/08 05:19:08;;;;;;;1.40;0.82;;;11.10;95.20;;;;;;4980622;28;20128;-88
2024/01/08 05:21:33;;;;;;;2.30;1.20;;;11.00;94.90;;;;;;4982004;28;20018;-88
2024/01/08 05:23:59;;;;;;;1.38;1.15;;;11.00;95.10;;;;;;4986974;28;20034;-89
2024/01/08 05:26:25;;;;;;;1.60;1.30;;;11.00;95.20;;;;;;4992381;28;20053;-89
2024/01/08 05:28:51;;;;;;;2.35;0.93;;;11.00;95.30;;;;;;4980135;28;20401;-88
2024/01/08 05:31:17;;;;;;;2.95;1.27;;;11.00;95.30;;;;;;4982392;28;20473;-88
2024/01/08 05:33:43;;;;;;;1.70;1.30;;;11.00;95.30;;;;;;4984118;28;20032;-87
2024/01/08 05:36:09;;;;;;;1.55;1.10;;;11.00;95.40;;;;;;4977402;28;20027;-88
2024/01/08 05:38:36;;;;;;;0.80;0.80;;;11.00;95.40;;;;;;4983857;28;20033;-87
2024/01/08 05:41:02;;;;;;;1.63;1.13;;;11.00;95.40;;;;;;4979039;28;20035;-87
2024/01/08 05:43:27;;;;;;;1.42;1.20;;;11.00;95.30;;;;;;4976691;28;20101;-88
2024/01/08 05:45:53;;;;;;;1.60;1.13;;;11.00;95.30;;;;;;4966462;28;20366;-88
2024/01/08 05:48:19;;;;;;;1.30;1.10;;;11.00;95.20;;;;;;4976181;28;20073;-86
2024/01/08 05:50:46;;;;;;;1.70;1.08;;;11.00;95.20;;;;;;4978623;28;20034;-87
2024/01/08 05:53:13;;;;;;;3.42;1.27;;;11.00;95.00;;;;;;4991809;28;20385;-88
2024/01/08 05:55:38;;;;;;;1.67;1.10;;;11.00;95.00;;;;;;4983977;28;20027;-87
2024/01/08 05:58:04;;;;;;;1.65;1.10;;;11.00;94.80;;;;;;4981894;28;20081;-87
2024/01/08 06:00:30;;;;;;;2.72;1.55;;;10.90;94.80;;;;;;4981515;28;21014;-87
2024/01/08 06:02:56;;;;;;;1.55;1.30;;;10.90;94.70;;;;;;4968492;28;20126;-87
2024/01/08 06:05:21;;;;;;;1.98;1.00;;;10.90;94.70;;;;;;4977027;28;20513;-86
2024/01/08 06:07:48;;;;;;;1.58;1.15;;;10.90;94.50;;;;;;4977243;28;20065;-87
2024/01/08 06:10:14;;;;;;;2.20;1.30;;;10.90;94.60;;;;;;4988412;28;20034;-86
2024/01/08 06:12:40;;;;;;;1.52;1.05;;;10.90;94.60;;;;;;4964815;28;20033;-86
2024/01/08 06:15:06;;;;;;;1.42;1.08;;;10.90;94.70;;;;;;4981048;28;20031;-84
2024/01/08 06:17:32;;;;;;;1.58;1.17;;;10.90;94.80;;;;;;4974887;28;20108;-84
2024/01/08 06:19:58;;;;;;;2.65;1.10;;;10.90;94.80;;;;;;4988966;28;20023;-86
2024/01/08 06:22:23;;;;;;;1.20;0.98;;;10.90;94.70;;;;;;4976425;28;20421;-85
2024/01/08 06:24:49;;;;;;;3.47;1.40;;;10.80;94.70;;;;;;4982721;28;20043;-86
2024/01/08 06:27:15;;;;;;;1.75;1.40;;;10.80;94.60;;;;;;4979129;28;20023;-85
2024/01/08 06:29:41;;;;;;;2.03;1.48;;;10.90;94.60;;;;;;4966018;28;20109;-85
2024/01/08 06:32:07;;;;;;;4.68;1.45;;;10.90;94.50;;;;;;4972240;28;20182;-85
2024/01/08 06:34:33;;;;;;;2.45;1.33;;;10.90;94.60;;;;;;4976319;28;20521;-85
2024/01/08 06:36:58;;;;;;;2.03;1.30;;;10.90;94.20;;;;;;4981828;28;20022;-86
2024/01/08 06:39:26;;;;;;;5.68;1.48;;;10.90;94.20;;;;;;4979508;28;20031;-86
2024/01/08 06:41:52;;;;;;;5.13;1.35;;;10.90;94.20;;;;;;4977301;28;20058;-85
2024/01/08 06:44:17;;;;;;;2.40;1.30;;;10.90;94.20;;;;;;4984932;28;20571;-86
2024/01/08 06:46:43;;;;;;;1.77;1.40;;;10.90;94.30;;;;;;4977863;28;20042;-84
2024/01/08 06:49:09;;;;;;;1.67;1.23;;;10.90;94.30;;;;;;4983535;28;20488;-85
2024/01/08 06:51:40;;;;;;;1.58;1.45;;;10.80;94.40;;;;;;4972861;28;20027;-85
2024/01/08 06:54:07;;;;;;;2.38;1.50;;;10.80;94.30;;;;;;4976833;28;20499;-85
2024/01/08 06:56:33;;;;;;;2.53;1.58;;;10.90;94.20;;;;;;4973064;28;20121;-85
2024/01/08 06:59:01;;;;;;;2.63;1.50;;;10.80;94.60;;;;;;4987072;28;20150;-86
2024/01/08 07:01:28;;;;;;;2.38;1.67;;;10.90;94.20;;;;;;4980874;28;20045;-86
2024/01/08 07:03:53;;;;;;;1.73;1.13;;;11.00;94.10;;;;;;4980860;28;20038;-84
2024/01/08 07:06:19;;;;;;;5.22;1.63;;;11.00;94.20;;;;;;4979930;28;20019;-88
2024/01/08 07:08:45;;;;;;;1.70;1.40;;;11.00;94.20;;;;;;4987452;28;20026;-87
2024/01/08 07:11:31;;;;;;;1.50;1.35;;;11.00;94.00;;;;;;4980321;28;20085;-86
2024/01/08 07:13:58;;;;;;;1.70;1.55;;;11.10;94.00;;;;;;4987369;28;20045;-86
2024/01/08 07:16:25;;;;;;;2.03;1.52;;;11.00;93.70;;;;;;4976963;28;20607;-86
2024/01/08 07:18:51;;;;;;;2.28;1.55;;;11.00;93.60;;;;;;4976551;28;20045;-87
2024/01/08 07:21:17;;;;;;;2.53;1.38;;;11.00;93.40;;;;;;4977203;28;20114;-87
2024/01/08 07:23:47;;;;;;;2.70;1.35;;;11.00;93.10;;;;;;4990148;28;20464;-88
2024/01/08 07:26:14;;;;;;;2.33;1.25;;;10.90;93.10;;;;;;4974958;28;20045;-89
2024/01/08 07:28:43;;;;;;;3.08;1.50;;;10.90;93.10;;;;;;4973748;28;20445;-87
2024/01/08 07:31:09;;;;;;;2.17;1.23;;;10.90;92.90;;;;;;4983418;28;20055;-87
2024/01/08 07:33:36;;;;;;;4.18;1.40;;;10.90;92.80;;;;;;4976339;28;20786;-88
2024/01/08 07:36:06;;;;;;;2.35;1.50;;;10.90;92.90;;;;;;4985406;28;20504;-87
2024/01/08 07:38:31;;;;;;;2.28;1.48;;;10.90;93.00;;;;;;4977026;28;20027;-88
2024/01/08 07:40:57;;;;;;;2.50;1.52;;;10.80;92.90;;;;;;4977311;28;20075;-88
2024/01/08 07:43:23;;;;;;;3.10;1.50;;;10.80;92.80;;;;;;4977105;28;20039;-88
2024/01/08 07:45:49;;;;;;;2.42;1.92;;;10.80;92.90;;;;;;4971469;28;20027;-88
2024/01/08 07:48:15;;;;;;;2.40;1.75;;;10.80;93.00;;;;;;4984499;28;20105;-89
2024/01/08 07:50:40;;;;;;;2.75;1.50;;;10.80;93.10;;;;;;4977961;28;20058;-89
2024/01/08 07:53:06;;;;;;;4.03;1.92;;;10.80;93.00;;;;;;4983543;28;20030;-89
2024/01/08 07:55:32;;;;;;;2.75;1.60;;;10.90;92.90;;;;;;4985006;28;20030;-89
2024/01/08 07:57:58;;;;;;;2.75;1.80;;;10.80;92.80;;;;;;4976708;28;20123;-88
2024/01/08 08:00:25;;;;;;;2.13;1.50;;;10.80;92.80;;;;;;4974760;28;20031;-87
2024/01/08 08:02:51;;;;;;;2.58;1.58;;;10.90;92.90;;;;;;4973491;28;20031;-87
2024/01/08 08:05:16;;;;;;;3.00;1.80;;;10.90;92.90;;;;;;4961957;28;20027;-86
2024/01/08 08:07:42;;;;;;;3.75;1.98;;;10.90;92.90;;;;;;4974392;28;20035;-87
2024/01/08 08:10:08;;;;;;;1.65;1.25;;;10.90;92.80;;;;;;4991978;28;20043;-87
2024/01/08 08:12:34;;;;;;;3.72;1.50;;;10.90;92.70;;;;;;4993737;28;20520;-87
2024/01/08 08:15:00;;;;;;;3.35;1.60;;;10.90;92.80;;;;;;4975690;28;20066;-86
2024/01/08 08:17:26;;;;;;;5.05;1.73;;;10.90;92.80;;;;;;4987273;28;20023;-86
2024/01/08 08:19:52;;;;;;;5.70;1.75;;;11.00;92.80;;;;;;4971631;28;20030;-86
2024/01/08 08:22:18;;;;;;;3.17;1.63;;;11.00;92.80;;;;;;4961139;28;20035;-88
2024/01/08 08:24:47;;;;;;;4.25;1.50;;;11.00;92.70;;;;;;4969693;28;20055;-86
2024/01/08 08:27:13;;;;;;;2.40;1.88;;;11.00;92.70;;;;;;4970384;28;20088;-85
2024/01/08 08:29:45;;;;;;;2.85;1.77;;;11.10;92.70;;;;;;4998849;28;20488;-86
2024/01/08 08:32:11;;;;;;;2.72;1.75;;;11.10;92.70;;;;;;4997844;28;20030;-84
2024/01/08 08:34:38;;;;;;;2.85;1.88;;;11.10;92.50;;;;;;4996645;28;20492;-85
2024/01/08 08:37:05;;;;;;;3.55;1.60;;;11.00;92.40;;;;;;4998004;28;20022;-85
2024/01/08 08:39:31;;;;;;;3.00;1.73;;;11.10;92.40;;;;;;4998838;28;20030;-85
2024/01/08 08:41:56;;;;;;;3.60;1.75;;;11.10;92.60;;;;;;4999240;28;20488;-85
2024/01/08 08:44:22;;;;;;;2.78;1.92;;;11.10;92.50;;;;;;4998290;28;20029;-85
2024/01/08 08:46:48;;;;;;;4.07;2.05;;;11.20;92.50;;;;;;4998438;28;20097;-85
2024/01/08 08:49:14;;;;;;;3.53;1.77;;;11.20;92.50;;;;;;4989582;28;20065;-84
2024/01/08 08:51:43;;;;;;;5.55;1.88;;;11.20;92.80;;;;;;4979421;28;20030;-85
2024/01/08 08:54:09;;;;;;;1.63;1.23;;;11.20;92.70;;;;;;4979484;28;20030;-85
2024/01/08 08:56:35;;;;;;;2.40;1.55;;;11.20;92.70;;;;;;4977634;28;20031;-84
2024/01/08 08:59:01;;;;;;;5.35;1.70;;;11.20;92.80;;;;;;4979587;28;20142;-85
2024/01/08 09:01:27;;;;;;;4.55;1.60;;;11.20;92.80;;;;;;4998345;28;20058;-85
2024/01/08 09:03:53;;;;;;;2.15;1.30;;;11.20;92.70;;;;;;4997638;28;20076;-85
2024/01/08 09:06:20;;;;;;;3.83;1.77;;;11.20;92.60;;;;;;4995769;28;20461;-85
2024/01/08 09:08:50;;;;;;;5.32;1.95;;;11.20;92.50;;;;;;4998461;28;20030;-86
2024/01/08 09:11:16;;;;;;;1.88;1.42;;;11.20;92.50;;;;;;4997106;28;20045;-85
2024/01/08 09:13:42;;;;;;;1.60;1.33;;;11.30;92.50;;;;;;4997322;28;20026;-86
2024/01/08 09:16:12;;;;;;;2.83;1.30;;;11.30;92.60;;;;;;4997422;28;20026;-85
2024/01/08 09:18:38;;;;;;;2.55;1.67;;;11.30;92.70;;;;;;4989975;28;20210;-85
2024/01/08 09:21:06;;;;;;;2.90;1.52;;;11.30;92.40;;;;;;4978491;28;20139;-86
2024/01/08 09:23:32;;;;;;;2.38;1.70;;;11.30;92.50;;;;;;4978079;28;20357;-85
2024/01/08 09:25:59;;;;;;;3.78;1.73;;;11.30;92.50;;;;;;4977827;28;20129;-85
2024/01/08 09:28:25;;;;;;;2.10;1.50;;;11.30;92.40;;;;;;4978689;28;20469;-85
2024/01/08 09:30:52;;;;;;;3.10;1.52;;;11.30;92.20;;;;;;4976766;28;20536;-85
2024/01/08 09:33:18;;;;;;;2.08;1.67;;;11.30;91.90;;;;;;4978076;28;20062;-85
2024/01/08 09:35:44;;;;;;;1.83;1.30;;;11.30;92.20;;;;;;4977589;28;20054;-85
2024/01/08 09:38:09;;;;;;;4.63;2.55;;;11.30;92.30;;;;;;4977815;28;20109;-85
2024/01/08 09:40:36;;;;;;;2.30;1.60;;;11.40;92.10;;;;;;4977262;28;20516;-84
2024/01/08 09:43:06;;;;;;;2.83;1.92;;;11.40;92.30;;;;;;4977992;28;20053;-85
2024/01/08 09:45:32;;;;;;;2.78;1.77;;;11.40;92.10;;;;;;4977597;28;20040;-85
2024/01/08 09:47:58;;;;;;;4.78;2.20;;;11.50;92.10;;;;;;4976720;28;20062;-86
2024/01/08 09:50:26;;;;;;;2.33;1.67;;;11.60;92.10;;;;;;4981554;28;20108;-85
2024/01/08 09:52:53;;;;;;;2.65;1.60;;;11.70;92.00;;;;;;4996318;28;20034;-85
2024/01/08 09:55:19;;;;;;;1.65;1.20;;;11.70;91.90;;;;;;4995939;28;20038;-84
2024/01/08 09:57:45;;;;;;;2.33;1.50;;;11.80;91.60;;;;;;4991944;28;20026;-86
2024/01/08 10:00:11;;;;;;;3.60;1.75;;;11.80;91.70;;;;;;4990954;28;20031;-86
2024/01/08 10:02:38;;;;;;;1.90;1.40;;;11.90;91.70;;;;;;4994712;28;20105;-85
2024/01/08 10:05:07;;;;;;;2.40;1.67;;;11.90;91.70;;;;;;4986182;28;20027;-85
2024/01/08 10:07:36;;;;;;;2.83;1.90;;;12.00;91.70;;;;;;4976132;28;20123;-84
2024/01/08 10:10:03;;;;;;;3.03;1.63;;;12.10;91.40;;;;;;4976236;28;20031;-85
2024/01/08 10:12:32;;;;;;;1.95;1.58;;;12.10;91.20;;;;;;4975972;28;20069;-84
2024/01/08 10:14:57;;;;;;;3.13;1.73;;;12.10;91.00;;;;;;4982316;28;20468;-85
2024/01/08 10:17:23;;;;;;;2.08;1.17;;;12.20;90.80;;;;;;4995819;28;20117;-83
2024/01/08 10:19:49;;;;;;;2.92;1.65;;;12.30;90.60;;;;;;4995081;28;20101;-85
2024/01/08 10:22:16;;;;;;;1.80;1.38;;;12.40;90.60;;;;;;4995162;28;20069;-84
2024/01/08 10:24:44;;;;;;;2.60;1.63;;;12.40;90.60;;;;;;4992473;28;20038;-84
2024/01/08 10:27:11;;;;;;;4.53;1.60;;;12.50;90.50;;;;;;4975653;28;20117;-86
2024/01/08 10:29:38;;;;;;;2.13;1.40;;;12.50;90.20;;;;;;4976367;28;20035;-86
2024/01/08 10:32:10;;;;;;;3.67;1.50;;;12.60;89.50;;;;;;4985782;28;20041;-86
2024/01/08 10:34:36;;;;;;;2.08;1.33;;;12.60;89.20;;;;;;4981976;28;20037;-87
2024/01/08 10:37:02;;;;;;;4.63;1.70;;;12.60;88.80;;;;;;4976056;28;20035;-85
2024/01/08 10:39:31;;;;;;;3.83;1.95;;;12.60;89.40;;;;;;4987000;28;20541;-86
2024/01/08 10:41:58;;;;;;;3.47;1.75;;;12.60;88.90;;;;;;4977891;28;20081;-83
2024/01/08 10:44:24;;;;;;;2.10;1.42;;;12.70;89.40;;;;;;4963602;28;20196;-86
2024/01/08 10:47:05;;;;;;;3.28;1.40;;;12.70;89.00;;;;;;4993930;28;20019;-86
2024/01/08 10:49:33;;;;;;;2.45;1.50;;;12.80;88.90;;;;;;4995190;28;20480;-86
2024/01/08 10:52:00;;;;;;;3.50;2.00;;;12.80;87.80;;;;;;4995891;28;20037;-85
2024/01/08 10:54:44;;;;;;;1.73;1.20;;;12.80;87.00;;;;;;4994654;28;20030;-85
2024/01/08 10:57:13;;;;;;;2.45;1.50;;;13.00;87.80;;;;;;4994431;28;20038;-85
2024/01/08 10:59:43;;;;;;;1.52;1.10;;;13.20;88.90;;;;;;4994999;28;20097;-85
2024/01/08 11:02:14;;;;;;;2.70;1.83;;;13.50;88.20;;;;;;4994996;28;20076;-85
2024/01/08 11:04:42;;;;;;;3.05;1.60;;;13.70;87.40;;;;;;4994714;28;20024;-85
2024/01/08 11:07:13;;;;;;;3.38;1.55;;;13.80;86.50;;;;;;4994615;28;20101;-84
2024/01/08 11:09:39;;;;;;;2.20;1.50;;;13.80;85.90;;;;;;4963176;28;20381;-85
2024/01/08 11:12:10;;;;;;;2.75;1.60;;;13.80;85.50;;;;;;4972378;28;20038;-85
2024/01/08 11:14:36;;;;;;;2.92;1.48;;;13.70;85.70;;;;;;4975050;28;20042;-83
2024/01/08 11:17:02;;;;;;;3.30;1.70;;;13.60;84.70;;;;;;4999829;23;20587;-87
2024/01/08 11:19:27;;;;;;;6.90;2.00;;;13.60;86.00;;;;;;4974547;28;20413;-86
2024/01/08 11:22:10;;;;;;;5.05;2.00;;;13.60;85.90;;;;;;4978425;28;20097;-86
2024/01/08 11:24:36;;;;;;;3.17;1.67;;;13.50;85.30;;;;;;4987437;28;20447;-86
2024/01/08 11:27:02;;;;;;;2.08;1.40;;;13.50;85.90;;;;;;4973806;28;20022;-85
2024/01/08 11:29:28;;;;;;;3.33;1.95;;;13.40;85.80;;;;;;4975339;28;20578;-86
2024/01/08 11:32:22;;;;;;;2.55;1.50;;;13.40;86.30;;;;;;4988356;28;20059;-85
2024/01/08 11:34:48;;;;;;;2.85;1.50;;;13.50;86.90;;;;;;4965713;28;20130;-86
2024/01/08 11:37:36;;;;;;;2.83;1.60;;;13.70;86.40;;;;;;4975587;28;20566;-86
2024/01/08 11:40:05;;;;;;;2.90;1.92;;;14.10;86.00;;;;;;4990698;28;20037;-86
2024/01/08 11:42:32;;;;;;;2.10;1.77;;;14.40;85.00;;;;;;4977427;28;20409;-85
2024/01/08 11:44:59;;;;;;;2.97;1.77;;;14.70;84.20;;;;;;4957442;28;20034;-86
2024/01/08 11:47:25;;;;;;;2.25;1.65;;;15.00;83.70;;;;;;4975633;28;20103;-86
2024/01/08 11:49:51;;;;;;;2.88;1.95;;;15.40;81.90;;;;;;4989503;28;20298;-86
2024/01/08 11:52:17;;;;;;;2.58;1.85;;;15.60;80.90;;;;;;4991270;28;20127;-87
2024/01/08 11:54:48;;;;;;;3.72;1.92;;;15.70;78.30;;;;;;4994467;28;20457;-87
2024/01/08 11:57:15;;;;;;;3.08;2.00;;;15.80;79.10;;;;;;4968528;28;20369;-87
2024/01/08 11:59:41;;;;;;;5.53;1.98;;;16.00;78.90;;;;;;4981923;28;20368;-87
2024/01/08 12:02:11;;;;;;;2.35;1.73;;;16.50;77.90;;;;;;4991396;28;20018;-87
2024/01/08 12:04:37;;;;;;;;;;;16.70;75.50;;;;;;4980221;28;20061;-87
2024/01/08 12:07:02;;;;;;;2.60;1.70;;;16.80;75.20;;;;;;4979593;28;19942;-87
2024/01/08 12:09:31;;;;;;;2.95;1.85;;;16.80;73.90;;;;;;4983460;28;20477;-87
2024/01/08 12:12:05;;;;;;;2.78;1.83;;;16.90;74.20;;;;;;4978851;28;20038;-87
2024/01/08 12:14:32;;;;;;;3.63;2.03;;;17.10;74.20;;;;;;4977644;28;20058;-86
2024/01/08 12:16:58;;;;;;;11.57;2.42;;;17.40;73.60;;;;;;4979908;28;20042;-88
2024/01/08 12:19:35;;;;;;;3.42;2.17;;;17.70;72.30;;;;;;4978670;28;20031;-88
2024/01/08 12:22:00;;;;;;;2.92;1.55;;;18.20;72.10;;;;;;4974689;28;20024;-90
2024/01/08 12:24:26;;;;;;;2.17;1.52;;;19.00;73.50;;;;;;4992041;28;20092;-86
2024/01/08 12:26:52;;;;;;;4.28;2.10;;;19.80;71.40;;;;;;4991591;28;20073;-86
2024/01/08 12:29:19;;;;;;;2.65;1.58;;;20.40;70.30;;;;;;4988245;28;20122;-88
2024/01/08 12:31:44;;;;;;;2.47;1.75;;;20.60;68.50;;;;;;4998246;28;20038;-87
2024/01/08 12:34:10;;;;;;;2.60;1.60;;;20.70;66.70;;;;;;4985856;28;20073;-89
2024/01/08 12:36:36;;;;;;;1.80;1.63;;;20.70;66.10;;;;;;4975146;28;20067;-88
2024/01/08 12:39:02;;;;;;;3.03;1.88;;;20.70;65.60;;;;;;4966655;28;20038;-88
2024/01/08 12:41:28;;;;;;;3.63;1.58;;;20.70;64.80;;;;;;4979331;28;20031;-89
2024/01/08 12:43:54;;;;;;;2.78;1.98;;;20.60;64.50;;;;;;4979225;28;20053;-88
2024/01/08 12:46:20;;;;;;;5.18;2.03;;;20.50;63.20;;;;;;4978844;28;20034;-89